Middle Point, Ohio
Current Conditions -  °F | °C
As of 9:53 PM on Wednesday 26 Nov 2014 (Local Time) from KAOH Reporting Station
Overcast Overcast  
Wind Chill: 25°   Ceiling: 3000
Heat Index: 31°   Visibility: 8mi
Dew Point: 25°   Wind: 6mph
Humidity: 79%   Direction: 340°NNW
Pressure: 30.06"   Gusts: NA
Location:  40.86°N, 84.45°W
Report Text: KAOH 270253Z AUTO 34005KT 8SM OVC030 M01/M04 A3006 RMK AO2 SLP191 T10061039 53001
Loading
Personal Weather Stations






























Interactive Weather Map New forecast layout! Learn more

10-Day Weather Forecast

Advertisements
Track Severe Weather on mobile